createdAt,value
2018-05-12T00:01:58.165Z,49.80
2018-05-12T00:04:25.748Z,50.00
2018-05-12T00:06:53.336Z,50.20
2018-05-12T00:09:20.878Z,50.20
2018-05-12T00:11:49.231Z,50.20
2018-05-12T00:14:16.783Z,50.20
2018-05-12T00:16:45.260Z,50.30
2018-05-12T00:19:13.140Z,50.30
2018-05-12T00:21:40.779Z,50.30
2018-05-12T00:24:08.319Z,50.40
2018-05-12T00:26:36.096Z,50.50
2018-05-12T00:29:03.789Z,50.60
2018-05-12T00:31:31.335Z,50.70
2018-05-12T00:33:59.651Z,50.80
2018-05-12T00:36:31.097Z,50.80
2018-05-12T00:38:58.651Z,50.80
2018-05-12T00:41:26.522Z,50.70
2018-05-12T00:43:54.139Z,50.90
2018-05-12T00:46:21.751Z,50.80
2018-05-12T00:48:49.291Z,51.00
2018-05-12T00:51:17.844Z,51.00
2018-05-12T00:53:45.521Z,51.00
2018-05-12T00:56:13.876Z,51.30
2018-05-12T00:58:41.655Z,51.30
2018-05-12T01:01:09.202Z,51.20
2018-05-12T01:03:36.927Z,51.10
2018-05-12T01:06:04.513Z,51.20
2018-05-12T01:08:32.140Z,51.10
2018-05-12T01:10:59.615Z,51.30
2018-05-12T01:13:27.386Z,51.10
2018-05-12T01:15:54.931Z,51.10
2018-05-12T01:18:23.359Z,51.50
2018-05-12T01:20:50.982Z,51.30
2018-05-12T01:23:18.730Z,51.30
2018-05-12T01:25:47.084Z,51.40
2018-05-12T01:28:14.651Z,51.30
2018-05-12T01:30:42.255Z,51.40
2018-05-12T01:33:09.955Z,51.50
2018-05-12T01:35:37.711Z,51.40
2018-05-12T01:38:06.060Z,51.60
2018-05-12T01:40:33.780Z,51.40
2018-05-12T01:43:01.425Z,51.50
2018-05-12T01:45:29.111Z,51.50
2018-05-12T01:47:56.871Z,51.30
2018-05-12T01:50:25.187Z,51.50
2018-05-12T01:52:53.632Z,51.40
2018-05-12T01:55:21.200Z,51.30
2018-05-12T01:57:49.554Z,51.80
2018-05-12T02:00:17.506Z,51.60
2018-05-12T02:02:46.105Z,51.40
2018-05-12T02:05:14.423Z,51.30
2018-05-12T02:07:42.279Z,51.30
2018-05-12T02:10:10.852Z,51.70
2018-05-12T02:12:38.651Z,51.60
2018-05-12T02:15:06.808Z,51.60
2018-05-12T02:17:35.423Z,51.40
2018-05-12T02:20:04.036Z,51.40
2018-05-12T02:22:32.352Z,51.50
2018-05-12T02:25:00.778Z,51.60
2018-05-12T02:27:29.285Z,51.50
2018-05-12T02:29:57.744Z,51.50
2018-05-12T02:32:25.526Z,51.50
2018-05-12T02:34:53.249Z,51.40
2018-05-12T02:37:21.588Z,51.70
2018-05-12T02:39:49.175Z,51.50
2018-05-12T02:42:16.747Z,51.60
2018-05-12T02:44:45.036Z,51.20
2018-05-12T02:47:13.504Z,51.90
2018-05-12T02:49:41.886Z,51.20
2018-05-12T02:52:09.436Z,51.20
2018-05-12T02:54:37.848Z,50.90
2018-05-12T02:57:06.459Z,50.90
2018-05-12T02:59:34.275Z,51.40
2018-05-12T03:02:01.869Z,50.90
2018-05-12T03:04:29.631Z,50.60
2018-05-12T03:06:57.448Z,50.70
2018-05-12T03:09:25.337Z,50.60
2018-05-12T03:11:52.917Z,50.70
2018-05-12T03:14:20.520Z,50.70
2018-05-12T03:16:48.073Z,50.70
2018-05-12T03:19:15.651Z,50.90
2018-05-12T03:21:43.195Z,51.00
2018-05-12T03:24:10.824Z,51.00
2018-05-12T03:26:38.431Z,51.10
2018-05-12T03:29:05.980Z,50.80
2018-05-12T03:31:34.415Z,50.70
2018-05-12T03:34:01.959Z,50.70
2018-05-12T03:36:30.343Z,50.40
2018-05-12T03:38:57.892Z,50.30
2018-05-12T03:41:25.495Z,50.50
2018-05-12T03:43:53.145Z,50.40
2018-05-12T03:46:21.451Z,50.40
2018-05-12T03:48:49.079Z,50.40
2018-05-12T03:51:16.704Z,50.30
2018-05-12T03:53:45.078Z,50.20
2018-05-12T03:56:12.863Z,50.10
2018-05-12T03:58:40.673Z,50.20
2018-05-12T04:01:08.243Z,50.20
2018-05-12T04:03:35.956Z,50.30
2018-05-12T04:06:15.468Z,50.50
2018-05-12T04:08:55.883Z,50.50
2018-05-12T04:11:35.426Z,50.50
2018-05-12T04:14:03.872Z,51.00
2018-05-12T04:16:31.464Z,51.00
2018-05-12T04:18:59.127Z,51.30
2018-05-12T04:21:26.753Z,51.50
2018-05-12T04:23:54.431Z,51.40
2018-05-12T04:26:22.019Z,51.40
2018-05-12T04:28:49.563Z,51.50
2018-05-12T04:31:17.144Z,51.50
2018-05-12T04:33:45.455Z,51.60
2018-05-12T04:36:13.055Z,51.60
2018-05-12T04:38:40.903Z,51.60
2018-05-12T04:41:08.667Z,51.70
2018-05-12T04:43:36.473Z,51.80
2018-05-12T04:46:04.343Z,52.10
2018-05-12T04:48:32.685Z,51.20
2018-05-12T04:51:00.274Z,51.20
2018-05-12T04:53:27.893Z,51.20
2018-05-12T04:55:55.556Z,50.80
2018-05-12T04:58:23.371Z,50.30
2018-05-12T05:00:51.026Z,50.10
2018-05-12T05:03:18.588Z,50.20
2018-05-12T05:05:46.184Z,50.10
2018-05-12T05:08:13.886Z,50.20
2018-05-12T05:10:41.539Z,50.10
2018-05-12T05:13:09.847Z,49.20
2018-05-12T05:15:37.456Z,49.20
2018-05-12T05:18:05.013Z,49.30
2018-05-12T05:20:33.436Z,49.30
2018-05-12T05:23:01.753Z,49.20
2018-05-12T05:25:29.410Z,49.20
2018-05-12T05:27:57.708Z,48.60
2018-05-12T05:30:25.557Z,48.20
2018-05-12T05:32:53.859Z,47.80
2018-05-12T05:35:21.467Z,47.80
2018-05-12T05:37:50.515Z,48.10
2018-05-12T05:40:18.207Z,48.00
2018-05-12T05:42:46.169Z,47.70
2018-05-12T05:45:14.273Z,47.80
2018-05-12T05:47:42.040Z,47.60
2018-05-12T05:50:09.641Z,47.50
2018-05-12T05:52:37.949Z,46.90
2018-05-12T05:55:05.506Z,46.90
2018-05-12T05:57:33.043Z,46.80
2018-05-12T06:00:01.265Z,47.10
2018-05-12T06:02:28.972Z,47.00
2018-05-12T06:04:56.879Z,47.00
2018-05-12T06:07:24.564Z,47.10
2018-05-12T06:09:52.388Z,46.90
2018-05-12T06:12:19.940Z,46.60
2018-05-12T06:14:47.577Z,46.40
2018-05-12T06:17:15.189Z,46.50
2018-05-12T06:19:42.748Z,46.40
2018-05-12T06:22:10.304Z,46.00
2018-05-12T06:24:37.891Z,46.30
2018-05-12T06:27:05.549Z,46.50
2018-05-12T06:29:33.099Z,46.20
2018-05-12T06:32:00.656Z,45.70
2018-05-12T06:34:28.200Z,45.50
2018-05-12T06:36:55.857Z,45.30
2018-05-12T06:39:24.272Z,45.30
2018-05-12T06:41:51.892Z,45.30
2018-05-12T06:44:19.788Z,45.10
2018-05-12T06:46:47.383Z,45.00
2018-05-12T06:49:14.952Z,45.00
2018-05-12T06:51:43.275Z,44.50
2018-05-12T06:54:10.928Z,45.10
2018-05-12T06:56:39.268Z,44.30
2018-05-12T06:59:08.099Z,43.80
2018-05-12T07:01:35.970Z,43.80
2018-05-12T07:04:03.516Z,43.90
2018-05-12T07:06:31.939Z,43.40
2018-05-12T07:09:00.266Z,43.20
2018-05-12T07:11:27.864Z,43.10
2018-05-12T07:13:55.407Z,43.20
2018-05-12T07:16:23.871Z,42.30
2018-05-12T07:18:52.384Z,42.00
2018-05-12T07:21:19.943Z,42.70
2018-05-12T07:23:47.710Z,42.30
2018-05-12T07:26:15.251Z,42.00
2018-05-12T07:28:42.823Z,41.90
2018-05-12T07:31:10.382Z,41.50
2018-05-12T07:33:38.125Z,41.70
2018-05-12T07:36:08.244Z,42.10
2018-05-12T07:38:36.650Z,41.90
2018-05-12T07:41:04.263Z,41.80
2018-05-12T07:43:31.811Z,41.30
2018-05-12T07:45:59.367Z,40.60
2018-05-12T07:48:26.992Z,40.10
2018-05-12T07:50:54.650Z,39.70
2018-05-12T07:53:22.989Z,40.00
2018-05-12T07:55:50.539Z,40.00
2018-05-12T07:58:18.312Z,39.90
2018-05-12T08:00:47.027Z,40.10
2018-05-12T08:03:15.375Z,40.30
2018-05-12T08:05:42.932Z,40.30
2018-05-12T08:08:10.485Z,39.80
2018-05-12T08:10:38.963Z,39.60
2018-05-12T08:13:06.612Z,39.50
2018-05-12T08:15:34.264Z,39.60
2018-05-12T08:18:01.856Z,39.80
2018-05-12T08:20:29.597Z,38.60
2018-05-12T08:22:57.155Z,39.10
2018-05-12T08:25:25.466Z,39.30
2018-05-12T08:27:53.080Z,39.30
2018-05-12T08:30:20.634Z,38.30
2018-05-12T08:32:48.272Z,38.00
2018-05-12T08:35:15.845Z,37.30
2018-05-12T08:37:43.389Z,36.70
2018-05-12T08:40:11.019Z,35.70
2018-05-12T08:42:38.587Z,35.80
2018-05-12T08:45:06.151Z,35.70
2018-05-12T08:47:34.015Z,35.60
2018-05-12T08:50:02.331Z,35.20
2018-05-12T08:52:30.713Z,34.40
2018-05-12T08:54:58.475Z,34.40
2018-05-12T08:57:26.026Z,34.70
2018-05-12T08:59:54.371Z,33.80
2018-05-12T09:02:21.920Z,33.80
2018-05-12T09:04:49.464Z,34.60
2018-05-12T09:07:17.129Z,33.70
2018-05-12T09:09:44.611Z,34.00
2018-05-12T09:12:12.262Z,33.10
2018-05-12T09:14:40.760Z,32.30
2018-05-12T09:17:08.467Z,32.30
2018-05-12T09:19:36.780Z,31.60
2018-05-12T09:22:05.102Z,31.80
2018-05-12T09:24:32.643Z,31.80
2018-05-12T09:27:00.307Z,31.80
2018-05-12T09:29:27.873Z,31.40
2018-05-12T09:31:55.448Z,31.10
2018-05-12T09:34:23.029Z,32.10
2018-05-12T09:36:50.654Z,31.00
2018-05-12T09:39:18.488Z,30.20
2018-05-12T09:41:46.864Z,30.30
2018-05-12T09:44:14.555Z,30.20
2018-05-12T09:46:42.232Z,29.80
2018-05-12T09:49:09.788Z,30.90
2018-05-12T09:51:37.714Z,30.30
2018-05-12T09:54:05.719Z,31.20
2018-05-12T09:56:33.267Z,31.20
2018-05-12T09:59:00.849Z,30.00
2018-05-12T10:01:29.263Z,29.80
2018-05-12T10:03:57.655Z,29.90
2018-05-12T10:06:26.110Z,29.50
2018-05-12T10:08:53.771Z,29.50
2018-05-12T10:11:22.123Z,29.00
2018-05-12T10:13:49.716Z,29.00
2018-05-12T10:16:17.321Z,27.90
2018-05-12T10:18:44.895Z,28.20
2018-05-12T10:21:12.559Z,27.40
2018-05-12T10:23:40.128Z,27.30
2018-05-12T10:26:07.780Z,28.20
2018-05-12T10:28:35.504Z,27.30
2018-05-12T10:31:03.405Z,28.10
2018-05-12T10:33:31.127Z,27.20
2018-05-12T10:35:58.956Z,27.90
2018-05-12T10:38:26.546Z,28.70
2018-05-12T10:40:54.161Z,28.10
2018-05-12T10:43:21.851Z,28.40
2018-05-12T10:45:50.252Z,26.20
2018-05-12T10:48:18.862Z,26.70
2018-05-12T10:50:47.463Z,26.70
2018-05-12T10:53:15.239Z,27.20
2018-05-12T10:55:43.142Z,27.20
2018-05-12T10:58:10.944Z,27.10
2018-05-12T11:00:38.631Z,26.80
2018-05-12T11:03:06.322Z,26.30
2018-05-12T11:05:35.343Z,27.30
2018-05-12T11:08:02.983Z,26.90
2018-05-12T11:10:30.835Z,25.90
2018-05-12T11:12:59.420Z,26.60
2018-05-12T11:15:27.015Z,26.60
2018-05-12T11:17:54.607Z,26.60
2018-05-12T11:20:23.037Z,26.40
2018-05-12T11:22:51.290Z,26.00
2018-05-12T11:25:18.881Z,26.00
2018-05-12T11:27:46.530Z,25.50
2018-05-12T11:30:14.860Z,26.70
2018-05-12T11:32:42.589Z,26.70
2018-05-12T11:35:10.140Z,25.80
2018-05-12T11:37:37.917Z,24.80
2018-05-12T11:40:05.545Z,24.60
2018-05-12T11:42:33.111Z,25.50
2018-05-12T11:45:00.681Z,25.30
2018-05-12T11:47:28.243Z,25.30
2018-05-12T11:49:55.823Z,25.60
2018-05-12T11:52:23.576Z,25.10
2018-05-12T11:54:51.159Z,25.80
2018-05-12T11:57:18.859Z,24.80
2018-05-12T11:59:46.823Z,24.70
2018-05-12T12:02:14.387Z,25.00
2018-05-12T12:04:42.106Z,23.90
2018-05-12T12:07:09.694Z,23.60
2018-05-12T12:09:37.264Z,24.00
2018-05-12T12:12:04.968Z,23.70
2018-05-12T12:14:32.557Z,24.30
2018-05-12T12:17:00.139Z,24.40
2018-05-12T12:19:27.714Z,24.80
2018-05-12T12:21:55.290Z,24.20
2018-05-12T12:24:22.891Z,24.20
2018-05-12T12:26:50.485Z,24.00
2018-05-12T12:29:18.044Z,24.20
2018-05-12T12:31:45.618Z,24.60
2018-05-12T12:34:13.190Z,24.10
2018-05-12T12:36:40.932Z,24.30
2018-05-12T12:39:08.483Z,25.00
2018-05-12T12:41:36.312Z,25.00
2018-05-12T12:44:04.946Z,24.70
2018-05-12T12:46:33.433Z,25.60
2018-05-12T12:49:00.992Z,25.00
2018-05-12T12:51:28.601Z,24.90
2018-05-12T12:53:56.195Z,25.10
2018-05-12T12:56:23.778Z,24.30
2018-05-12T12:58:51.474Z,24.70
2018-05-12T13:01:19.255Z,24.90
2018-05-12T13:03:46.863Z,24.40
2018-05-12T13:06:14.435Z,24.30
2018-05-12T13:08:42.032Z,24.50
2018-05-12T13:11:10.290Z,23.60
2018-05-12T13:13:37.843Z,23.90
2018-05-12T13:16:06.252Z,23.60
2018-05-12T13:18:33.807Z,23.60
2018-05-12T13:21:01.515Z,23.70
2018-05-12T13:23:29.318Z,23.10
2018-05-12T13:25:56.901Z,23.20
2018-05-12T13:28:24.868Z,22.50
2018-05-12T13:30:52.489Z,22.50
2018-05-12T13:33:20.260Z,23.50
2018-05-12T13:35:47.931Z,23.30
2018-05-12T13:38:15.544Z,23.30
2018-05-12T13:40:43.105Z,22.90
2018-05-12T13:43:10.671Z,23.50
2018-05-12T13:45:38.395Z,23.60
2018-05-12T13:48:06.096Z,23.80
2018-05-12T13:50:34.419Z,24.30
2018-05-12T13:53:02.757Z,25.20
2018-05-12T13:55:30.319Z,25.10
2018-05-12T13:57:58.721Z,24.80
2018-05-12T14:00:27.099Z,25.60
2018-05-12T14:02:54.675Z,25.50
2018-05-12T14:05:22.590Z,25.10
2018-05-12T14:07:50.192Z,24.40
2018-05-12T14:10:17.768Z,24.80
2018-05-12T14:12:45.376Z,25.30
2018-05-12T14:15:13.083Z,25.60
2018-05-12T14:17:41.504Z,24.60
2018-05-12T14:20:09.070Z,24.70
2018-05-12T14:22:36.747Z,25.30
2018-05-12T14:25:04.318Z,24.50
2018-05-12T14:27:31.894Z,24.90
2018-05-12T14:29:59.456Z,24.60
2018-05-12T14:32:27.076Z,24.20
2018-05-12T14:34:54.628Z,24.60
2018-05-12T14:37:22.244Z,24.50
2018-05-12T14:39:49.832Z,24.50
2018-05-12T14:42:17.412Z,24.70
2018-05-12T14:44:44.979Z,24.30
2018-05-12T14:47:12.556Z,24.40
2018-05-12T14:49:41.572Z,24.60
2018-05-12T14:52:09.196Z,24.10
2018-05-12T14:54:36.823Z,23.80
2018-05-12T14:57:04.772Z,24.30
2018-05-12T14:59:32.352Z,23.70
2018-05-12T15:01:59.957Z,24.00
2018-05-12T15:04:27.530Z,23.60
2018-05-12T15:06:55.121Z,23.60
2018-05-12T15:09:22.800Z,23.60
2018-05-12T15:11:50.352Z,23.20
2018-05-12T15:14:17.927Z,23.20
2018-05-12T15:16:46.254Z,23.60
2018-05-12T15:19:13.850Z,23.10
2018-05-12T15:21:41.513Z,23.30
2018-05-12T15:24:09.093Z,23.60
2018-05-12T15:26:36.727Z,23.70
2018-05-12T15:29:04.311Z,23.10
2018-05-12T15:31:31.870Z,23.40
2018-05-12T15:33:59.607Z,23.50
2018-05-12T15:36:28.099Z,23.20
2018-05-12T15:38:55.665Z,23.20
2018-05-12T15:41:23.238Z,23.40
2018-05-12T15:43:50.855Z,23.40
2018-05-12T15:46:18.403Z,23.90
2018-05-12T15:48:45.964Z,24.40
2018-05-12T15:51:13.522Z,24.50
2018-05-12T15:53:41.080Z,23.60
2018-05-12T15:56:08.670Z,24.10
2018-05-12T15:58:36.263Z,24.10
2018-05-12T16:01:03.851Z,24.20
2018-05-12T16:03:32.296Z,24.20
2018-05-12T16:05:59.859Z,24.70
2018-05-12T16:08:28.190Z,24.60
2018-05-12T16:10:56.232Z,24.60
2018-05-12T16:13:23.803Z,24.50
2018-05-12T16:15:51.517Z,24.40
2018-05-12T16:18:19.071Z,24.70
2018-05-12T16:20:46.635Z,25.10
2018-05-12T16:23:14.192Z,25.40
2018-05-12T16:25:42.579Z,25.60
2018-05-12T16:28:10.107Z,25.50
2018-05-12T16:30:37.755Z,25.50
2018-05-12T16:33:05.315Z,25.80
2018-05-12T16:35:32.915Z,26.60
2018-05-12T16:38:00.522Z,26.70
2018-05-12T16:40:28.071Z,26.90
2018-05-12T16:42:55.747Z,27.20
2018-05-12T16:45:23.299Z,27.20
2018-05-12T16:47:51.620Z,27.70
2018-05-12T16:50:19.171Z,27.70
2018-05-12T16:52:46.742Z,27.50
2018-05-12T16:55:14.333Z,27.50
2018-05-12T16:57:42.955Z,27.70
2018-05-12T17:00:10.943Z,27.70
2018-05-12T17:02:38.613Z,27.40
2018-05-12T17:05:06.173Z,27.40
2018-05-12T17:07:33.853Z,27.20
2018-05-12T17:10:01.646Z,27.40
2018-05-12T17:12:29.219Z,26.90
2018-05-12T17:14:56.767Z,27.20
2018-05-12T17:17:25.151Z,27.60
2018-05-12T17:19:52.782Z,27.90
2018-05-12T17:22:20.886Z,28.10
2018-05-12T17:24:48.617Z,28.60
2018-05-12T17:27:16.244Z,28.70
2018-05-12T17:29:43.845Z,28.90
2018-05-12T17:32:11.480Z,29.20
2018-05-12T17:34:39.811Z,29.50
2018-05-12T17:37:07.503Z,29.90
2018-05-12T17:39:35.039Z,30.30
2018-05-12T17:42:02.584Z,30.70
2018-05-12T17:44:30.173Z,31.30
2018-05-12T17:46:57.757Z,31.30
2018-05-12T17:49:25.291Z,31.70
2018-05-12T17:51:53.622Z,32.10
2018-05-12T17:54:21.570Z,32.10
2018-05-12T17:56:49.821Z,33.20
2018-05-12T17:59:19.149Z,32.80
2018-05-12T18:01:46.764Z,32.80
2018-05-12T18:04:14.448Z,32.80
2018-05-12T18:06:42.853Z,32.40
2018-05-12T18:09:11.180Z,32.50
2018-05-12T18:11:38.950Z,32.50
2018-05-12T18:14:06.388Z,32.60
2018-05-12T18:16:34.024Z,32.40
2018-05-12T18:19:02.310Z,32.90
2018-05-12T18:21:30.624Z,33.00
2018-05-12T18:23:59.030Z,33.10
2018-05-12T18:26:27.369Z,33.20
2018-05-12T18:28:55.111Z,33.20
2018-05-12T18:31:23.529Z,33.40
2018-05-12T18:33:51.860Z,33.50
2018-05-12T18:36:19.765Z,33.40
2018-05-12T18:38:57.074Z,33.50
2018-05-12T18:41:24.659Z,33.70
2018-05-12T18:43:52.190Z,33.70
2018-05-12T18:46:38.888Z,33.70
2018-05-12T18:49:06.432Z,33.80
2018-05-12T18:51:34.248Z,33.70
2018-05-12T18:54:02.809Z,34.00
2018-05-12T18:56:30.367Z,34.10
2018-05-12T18:58:57.976Z,34.20
2018-05-12T19:01:25.522Z,34.20
2018-05-12T19:03:53.063Z,34.40
2018-05-12T19:06:20.903Z,34.50
2018-05-12T19:08:48.620Z,34.50
2018-05-12T19:11:16.176Z,34.60
2018-05-12T19:13:43.799Z,34.80
2018-05-12T19:16:11.495Z,34.60
2018-05-12T19:18:39.059Z,34.70
2018-05-12T19:21:06.644Z,34.80
2018-05-12T19:23:34.293Z,34.70
2018-05-12T19:26:01.848Z,34.70
2018-05-12T19:28:29.616Z,34.60
2018-05-12T19:30:57.156Z,34.80
2018-05-12T19:33:24.711Z,34.70
2018-05-12T19:35:52.249Z,34.90
2018-05-12T19:38:19.789Z,35.10
2018-05-12T19:40:47.330Z,35.10
2018-05-12T19:43:14.938Z,35.10
2018-05-12T19:45:42.483Z,35.30
2018-05-12T19:48:10.785Z,35.70
2018-05-12T19:50:39.330Z,35.90
2018-05-12T19:53:07.768Z,35.80
2018-05-12T19:55:35.303Z,35.70
2018-05-12T19:58:03.613Z,35.60
2018-05-12T20:00:32.264Z,35.80
2018-05-12T20:02:59.930Z,35.70
2018-05-12T20:05:27.533Z,36.00
2018-05-12T20:07:55.135Z,35.90
2018-05-12T20:10:22.697Z,35.80
2018-05-12T20:12:50.279Z,36.00
2018-05-12T20:15:17.892Z,35.70
2018-05-12T20:17:45.473Z,35.80
2018-05-12T20:20:13.064Z,35.80
2018-05-12T20:22:40.610Z,35.90
2018-05-12T20:25:08.948Z,35.90
2018-05-12T20:27:36.486Z,35.80
2018-05-12T20:30:04.844Z,35.90
2018-05-12T20:32:32.696Z,35.80
2018-05-12T20:35:01.067Z,36.60
2018-05-12T20:37:30.195Z,36.40
2018-05-12T20:39:57.665Z,36.30
2018-05-12T20:42:25.232Z,36.20
2018-05-12T20:44:52.799Z,35.90
2018-05-12T20:47:20.357Z,36.10
2018-05-12T20:49:48.027Z,36.50
2018-05-12T20:52:15.735Z,36.60
2018-05-12T20:54:44.024Z,36.60
2018-05-12T20:57:12.373Z,36.80
2018-05-12T20:59:39.966Z,36.70
2018-05-12T21:02:07.539Z,36.70
2018-05-12T21:04:35.076Z,36.60
2018-05-12T21:07:02.608Z,37.10
2018-05-12T21:09:30.145Z,37.00
2018-05-12T21:11:58.450Z,37.20
2018-05-12T21:14:25.991Z,37.10
2018-05-12T21:16:53.668Z,37.30
2018-05-12T21:19:21.372Z,37.40
2018-05-12T21:21:49.214Z,37.70
2018-05-12T21:24:17.521Z,37.80
2018-05-12T21:26:45.850Z,38.10
2018-05-12T21:29:13.435Z,38.10
2018-05-12T21:31:40.972Z,38.10
2018-05-12T21:34:08.505Z,38.40
2018-05-12T21:36:36.035Z,38.40
2018-05-12T21:39:03.578Z,38.40
2018-05-12T21:41:31.114Z,38.60
2018-05-12T21:43:58.659Z,38.80
2018-05-12T21:46:27.087Z,38.90
2018-05-12T21:48:54.783Z,38.90
2018-05-12T21:51:22.452Z,39.10
2018-05-12T21:53:50.756Z,39.20
2018-05-12T21:56:21.306Z,39.30
2018-05-12T21:58:49.592Z,39.50
2018-05-12T22:01:17.128Z,39.50
2018-05-12T22:03:44.762Z,39.50
2018-05-12T22:06:12.538Z,39.70
2018-05-12T22:08:40.072Z,39.70
2018-05-12T22:11:08.380Z,40.00
2018-05-12T22:13:36.775Z,40.40
2018-05-12T22:16:04.296Z,40.40
2018-05-12T22:18:31.995Z,41.20
2018-05-12T22:20:59.528Z,40.60
2018-05-12T22:23:27.132Z,40.80
2018-05-12T22:25:54.837Z,40.80
2018-05-12T22:28:23.132Z,41.00
2018-05-12T22:30:50.759Z,41.00
2018-05-12T22:33:18.318Z,41.00
2018-05-12T22:35:45.941Z,41.00
2018-05-12T22:38:13.476Z,41.20
2018-05-12T22:40:41.012Z,41.20
2018-05-12T22:43:08.549Z,41.10
2018-05-12T22:45:36.271Z,41.40
2018-05-12T22:48:03.948Z,42.00
2018-05-12T22:50:32.369Z,41.50
2018-05-12T22:53:00.146Z,41.50
2018-05-12T22:55:27.892Z,41.50
2018-05-12T22:57:55.668Z,41.60
2018-05-12T23:00:24.752Z,41.60
2018-05-12T23:02:53.047Z,41.70
2018-05-12T23:05:21.428Z,41.70
2018-05-12T23:07:49.401Z,41.70
2018-05-12T23:10:17.022Z,41.90
2018-05-12T23:12:44.555Z,42.10
2018-05-12T23:15:12.092Z,42.10
2018-05-12T23:17:39.829Z,42.20
2018-05-12T23:20:07.587Z,42.30
2018-05-12T23:22:35.214Z,42.30
2018-05-12T23:25:02.777Z,42.30
2018-05-12T23:27:31.068Z,42.40
2018-05-12T23:29:58.605Z,42.30
2018-05-12T23:32:26.188Z,42.40
2018-05-12T23:34:53.824Z,42.40
2018-05-12T23:37:22.233Z,42.50
2018-05-12T23:39:50.669Z,42.50
2018-05-12T23:42:18.403Z,42.50
2018-05-12T23:44:45.928Z,42.60
2018-05-12T23:47:14.234Z,42.60
2018-05-12T23:49:42.198Z,42.60
2018-05-12T23:52:09.774Z,42.80
2018-05-12T23:54:38.286Z,43.60
2018-05-12T23:57:06.598Z,43.00
2018-05-12T23:59:34.909Z,43.10
